createdAt,value
2023-03-08T00:02:01.223Z,14.87
2023-03-08T00:04:27.709Z,12.90
2023-03-08T00:06:54.348Z,11.33
2023-03-08T00:09:20.759Z,11.80
2023-03-08T00:11:47.188Z,12.40
2023-03-08T00:14:13.582Z,11.70
2023-03-08T00:16:39.988Z,12.00
2023-03-08T00:19:06.424Z,12.63
2023-03-08T00:21:32.848Z,13.60
2023-03-08T00:23:59.239Z,12.77
2023-03-08T00:26:25.725Z,12.67
2023-03-08T00:28:53.015Z,14.53
2023-03-08T00:31:19.644Z,10.53
2023-03-08T00:33:46.191Z,12.60
2023-03-08T00:36:17.468Z,14.03
2023-03-08T00:38:44.655Z,12.80
2023-03-08T00:41:14.272Z,12.13
2023-03-08T00:43:42.361Z,13.83
2023-03-08T00:46:09.671Z,14.47
2023-03-08T00:48:36.204Z,15.23
2023-03-08T00:51:02.683Z,14.50
2023-03-08T00:53:29.878Z,13.40
2023-03-08T00:55:57.848Z,11.90
2023-03-08T00:58:26.514Z,12.43
2023-03-08T01:00:53.380Z,13.27
2023-03-08T01:03:21.825Z,14.10
2023-03-08T01:05:50.617Z,12.73
2023-03-08T01:08:18.382Z,13.43
2023-03-08T01:10:49.866Z,14.23
2023-03-08T01:13:17.150Z,13.30
2023-03-08T01:15:43.890Z,12.20
2023-03-08T01:18:10.748Z,14.83
2023-03-08T01:20:37.267Z,13.47
2023-03-08T01:23:03.864Z,12.40
2023-03-08T01:25:30.720Z,12.60
2023-03-08T01:27:57.180Z,13.23
2023-03-08T01:30:24.142Z,13.63
2023-03-08T01:32:50.709Z,12.57
2023-03-08T01:35:17.861Z,13.27
2023-03-08T01:37:53.607Z,14.57
2023-03-08T01:40:21.369Z,13.73
2023-03-08T01:42:47.973Z,14.40
2023-03-08T01:45:53.089Z,14.80
2023-03-08T01:48:23.599Z,15.10
2023-03-08T01:50:58.756Z,13.23
2023-03-08T01:53:25.688Z,11.67
2023-03-08T01:55:52.782Z,14.97
2023-03-08T01:58:19.373Z,12.93
2023-03-08T02:00:45.839Z,14.17
2023-03-08T02:03:12.459Z,15.33
2023-03-08T02:05:41.929Z,15.13
2023-03-08T02:08:15.044Z,12.47
2023-03-08T02:10:43.556Z,13.77
2023-03-08T02:13:11.299Z,13.13
2023-03-08T02:15:41.157Z,13.97
2023-03-08T02:18:07.743Z,12.07
2023-03-08T02:20:36.731Z,12.10
2023-03-08T02:23:12.642Z,12.60
2023-03-08T02:25:47.339Z,14.00
2023-03-08T02:28:13.846Z,13.67
2023-03-08T02:30:40.436Z,12.23
2023-03-08T02:33:07.594Z,14.43
2023-03-08T02:35:38.583Z,13.63
2023-03-08T02:38:05.052Z,11.43
2023-03-08T02:40:31.512Z,11.93
2023-03-08T02:42:57.967Z,12.73
2023-03-08T02:45:24.477Z,11.97
2023-03-08T02:47:50.939Z,11.43
2023-03-08T02:50:18.426Z,10.83
2023-03-08T02:52:44.906Z,11.87
2023-03-08T02:55:11.364Z,12.63
2023-03-08T02:57:37.848Z,13.03
2023-03-08T03:00:06.386Z,13.63
2023-03-08T03:02:33.879Z,12.70
2023-03-08T03:05:00.388Z,12.30
2023-03-08T03:07:27.668Z,11.67
2023-03-08T03:09:54.732Z,12.03
2023-03-08T03:12:21.563Z,13.20
2023-03-08T03:14:48.093Z,15.47
2023-03-08T03:17:15.182Z,12.50
2023-03-08T03:19:41.731Z,12.57
2023-03-08T03:22:08.241Z,14.87
2023-03-08T03:24:37.409Z,12.30
2023-03-08T03:27:05.321Z,13.03
2023-03-08T03:29:34.494Z,12.37
2023-03-08T03:32:11.042Z,12.03
2023-03-08T03:34:37.645Z,12.70
2023-03-08T03:37:04.547Z,11.47
2023-03-08T03:39:34.687Z,12.47
2023-03-08T03:42:02.157Z,14.93
2023-03-08T03:44:30.887Z,13.57
2023-03-08T03:46:58.208Z,11.53
2023-03-08T03:49:27.210Z,11.53
2023-03-08T03:51:53.675Z,13.17
2023-03-08T03:54:24.543Z,11.57
2023-03-08T03:56:51.333Z,13.40
2023-03-08T03:59:21.583Z,13.17
2023-03-08T04:01:48.595Z,11.77
2023-03-08T04:04:21.618Z,14.57
2023-03-08T04:06:49.011Z,11.43
2023-03-08T04:09:18.882Z,13.63
2023-03-08T04:11:52.365Z,12.10
2023-03-08T04:14:21.797Z,12.40
2023-03-08T04:16:49.754Z,13.83
2023-03-08T04:19:26.637Z,13.07
2023-03-08T04:21:56.373Z,11.53
2023-03-08T04:24:27.300Z,12.70
2023-03-08T04:26:57.826Z,12.77
2023-03-08T04:29:24.341Z,11.57
2023-03-08T04:31:51.013Z,11.73
2023-03-08T04:34:19.642Z,13.13
2023-03-08T04:36:49.101Z,12.70
2023-03-08T04:39:16.398Z,12.80
2023-03-08T04:41:42.837Z,12.23
2023-03-08T04:44:22.395Z,10.63
2023-03-08T04:46:51.763Z,11.97
2023-03-08T04:49:26.051Z,14.87
2023-03-08T04:51:58.083Z,9.80
2023-03-08T04:54:25.031Z,10.67
2023-03-08T04:56:58.817Z,11.07
2023-03-08T04:59:25.654Z,11.47
2023-03-08T05:01:54.920Z,10.87
2023-03-08T05:04:22.798Z,9.77
2023-03-08T05:06:49.226Z,13.23
2023-03-08T05:09:20.926Z,12.57
2023-03-08T05:11:50.728Z,10.40
2023-03-08T05:14:17.191Z,13.20
2023-03-08T05:16:43.934Z,10.80
2023-03-08T05:19:11.491Z,12.37
2023-03-08T05:21:45.502Z,11.37
2023-03-08T05:24:12.797Z,14.37
2023-03-08T05:26:39.514Z,11.33
2023-03-08T05:29:06.754Z,12.37
2023-03-08T05:31:36.556Z,12.93
2023-03-08T05:34:05.366Z,12.10
2023-03-08T05:36:36.519Z,12.80
2023-03-08T05:39:06.755Z,12.40
2023-03-08T05:41:41.413Z,12.97
2023-03-08T05:44:08.367Z,12.90
2023-03-08T05:46:38.223Z,11.70
2023-03-08T05:49:06.529Z,12.43
2023-03-08T05:51:35.056Z,12.20
2023-03-08T05:54:02.142Z,16.17
2023-03-08T05:56:31.140Z,12.87
2023-03-08T05:59:05.598Z,14.80
2023-03-08T06:01:32.522Z,11.87
2023-03-08T06:04:11.028Z,12.13
2023-03-08T06:06:40.225Z,13.23
2023-03-08T06:09:07.911Z,12.43
2023-03-08T06:11:37.565Z,13.80
2023-03-08T06:14:05.171Z,15.00
2023-03-08T06:16:35.106Z,15.93
2023-03-08T06:19:02.342Z,13.80
2023-03-08T06:21:29.819Z,13.03
2023-03-08T06:24:00.140Z,13.03
2023-03-08T06:26:26.546Z,13.40
2023-03-08T06:28:53.258Z,13.57
2023-03-08T06:31:20.744Z,13.00
2023-03-08T06:33:47.445Z,12.30
2023-03-08T06:36:21.363Z,13.37
2023-03-08T06:38:49.829Z,12.70
2023-03-08T06:41:17.905Z,12.77
2023-03-08T06:43:47.594Z,14.70
2023-03-08T06:46:20.183Z,13.50
2023-03-08T06:48:48.158Z,14.80
2023-03-08T06:51:16.624Z,14.70
2023-03-08T06:53:44.942Z,12.27
2023-03-08T06:56:15.515Z,13.77
2023-03-08T06:58:42.877Z,12.17
2023-03-08T07:01:09.870Z,11.67
2023-03-08T07:03:36.788Z,13.80
2023-03-08T07:06:05.946Z,14.43
2023-03-08T07:08:32.728Z,13.47
2023-03-08T07:10:59.947Z,13.30
2023-03-08T07:13:26.789Z,15.43
2023-03-08T07:15:53.334Z,17.00
2023-03-08T07:18:20.359Z,14.93
2023-03-08T07:20:57.530Z,16.97
2023-03-08T07:23:24.727Z,13.53
2023-03-08T07:25:51.394Z,15.20
2023-03-08T07:28:19.175Z,13.20
2023-03-08T07:30:50.425Z,13.27
2023-03-08T07:33:18.731Z,15.87
2023-03-08T07:35:45.200Z,14.47
2023-03-08T07:38:12.441Z,15.27
2023-03-08T07:40:39.161Z,15.83
2023-03-08T07:43:06.253Z,15.03
2023-03-08T07:46:05.330Z,15.17
2023-03-08T07:48:32.569Z,18.17
2023-03-08T07:51:07.132Z,15.53
2023-03-08T07:53:33.987Z,23.17
2023-03-08T07:56:00.597Z,21.10
2023-03-08T07:58:28.131Z,19.67
2023-03-08T08:00:54.557Z,19.03
2023-03-08T08:03:21.372Z,16.43
2023-03-08T08:05:48.132Z,21.20
2023-03-08T08:08:14.790Z,24.43
2023-03-08T08:10:42.297Z,19.97
2023-03-08T08:13:09.491Z,19.93
2023-03-08T08:15:35.931Z,24.50
2023-03-08T08:18:02.439Z,19.33
2023-03-08T08:20:28.929Z,24.43
2023-03-08T08:22:55.377Z,21.00
2023-03-08T08:25:22.071Z,17.60
2023-03-08T08:27:49.949Z,19.53
2023-03-08T08:30:16.565Z,17.23
2023-03-08T08:32:43.073Z,20.53
2023-03-08T08:35:09.785Z,18.13
2023-03-08T08:37:36.175Z,17.00
2023-03-08T08:40:04.760Z,13.57
2023-03-08T08:42:31.206Z,13.27
2023-03-08T08:44:57.607Z,10.63
2023-03-08T08:47:24.085Z,11.67
2023-03-08T08:49:52.344Z,13.07
2023-03-08T08:52:19.144Z,13.37
2023-03-08T08:54:45.717Z,18.00
2023-03-08T08:57:12.166Z,13.93
2023-03-08T08:59:38.614Z,13.30
2023-03-08T09:02:06.184Z,9.33
2023-03-08T09:04:32.768Z,9.80
2023-03-08T09:06:59.237Z,10.90
2023-03-08T09:09:26.788Z,10.53
2023-03-08T09:11:55.577Z,8.73
2023-03-08T09:14:23.391Z,8.53
2023-03-08T09:16:50.168Z,8.10
2023-03-08T09:19:16.773Z,11.83
2023-03-08T09:21:43.327Z,12.93
2023-03-08T09:24:11.668Z,84.93
2023-03-08T09:26:38.273Z,15.77
2023-03-08T09:29:05.523Z,11.80
2023-03-08T09:31:34.088Z,7.80
2023-03-08T09:34:00.685Z,7.77
2023-03-08T09:36:29.971Z,9.53
2023-03-08T09:38:56.445Z,6.70
2023-03-08T09:41:44.549Z,6.80
2023-03-08T09:44:18.060Z,7.00
2023-03-08T09:46:54.018Z,6.93
2023-03-08T09:49:28.047Z,5.70
2023-03-08T09:52:04.436Z,6.10
2023-03-08T09:54:34.947Z,6.20
2023-03-08T09:57:06.749Z,5.70
2023-03-08T09:59:41.002Z,5.63
2023-03-08T10:02:34.922Z,20.27
2023-03-08T10:05:14.368Z,20.33
2023-03-08T10:08:05.017Z,9.30
2023-03-08T10:11:00.404Z,5.77
2023-03-08T10:13:31.126Z,4.90
2023-03-08T10:16:25.058Z,4.20
2023-03-08T10:18:58.633Z,4.53
2023-03-08T10:21:26.664Z,4.20
2023-03-08T10:24:01.956Z,4.30
2023-03-08T10:26:29.135Z,5.33
2023-03-08T10:28:55.630Z,5.40
2023-03-08T10:31:30.875Z,5.73
2023-03-08T10:34:07.092Z,4.87
2023-03-08T10:36:33.574Z,3.70
2023-03-08T10:39:08.797Z,4.63
2023-03-08T10:41:44.777Z,4.73
2023-03-08T10:44:29.650Z,4.43
2023-03-08T10:46:56.171Z,4.47
2023-03-08T10:49:26.923Z,4.03
2023-03-08T10:52:00.351Z,5.07
2023-03-08T10:54:28.486Z,7.43
2023-03-08T10:56:59.001Z,5.13
2023-03-08T10:59:34.606Z,5.30
2023-03-08T11:02:12.921Z,5.60
2023-03-08T11:04:51.001Z,4.40
2023-03-08T11:07:25.905Z,4.43
2023-03-08T11:10:03.570Z,5.40
2023-03-08T11:12:30.029Z,4.50
2023-03-08T11:14:56.483Z,5.90
2023-03-08T11:17:39.175Z,4.87
2023-03-08T11:20:28.344Z,5.47
2023-03-08T11:23:18.266Z,5.03
2023-03-08T11:25:48.481Z,4.90
2023-03-08T11:28:44.606Z,7.20
2023-03-08T11:31:20.860Z,5.90
2023-03-08T11:33:59.501Z,6.10
2023-03-08T11:36:38.542Z,6.33
2023-03-08T11:39:19.915Z,6.83
2023-03-08T11:42:07.130Z,7.00
2023-03-08T11:44:36.567Z,5.73
2023-03-08T11:47:30.901Z,6.70
2023-03-08T11:50:21.902Z,6.63
2023-03-08T11:53:09.292Z,5.97
2023-03-08T11:56:01.962Z,7.50
2023-03-08T11:58:36.430Z,6.13
2023-03-08T12:01:11.926Z,9.07
2023-03-08T12:03:43.726Z,9.87
2023-03-08T12:06:27.936Z,6.63
2023-03-08T12:09:01.590Z,5.33
2023-03-08T12:11:32.647Z,5.73
2023-03-08T12:14:09.493Z,5.10
2023-03-08T12:16:40.713Z,4.93
2023-03-08T12:19:30.301Z,4.57
2023-03-08T12:22:18.282Z,4.43
2023-03-08T12:24:56.497Z,6.17
2023-03-08T12:27:38.813Z,4.37
2023-03-08T12:30:10.976Z,4.73
2023-03-08T12:32:40.135Z,5.17
2023-03-08T12:35:38.135Z,4.90
2023-03-08T12:38:25.842Z,4.97
2023-03-08T12:40:54.493Z,6.17
2023-03-08T12:43:20.895Z,4.30
2023-03-08T12:45:59.623Z,4.40
2023-03-08T12:48:28.565Z,5.40
2023-03-08T12:51:27.270Z,4.67
2023-03-08T12:53:53.706Z,5.33
2023-03-08T12:56:36.561Z,4.87
2023-03-08T12:59:14.942Z,5.53
2023-03-08T13:01:47.148Z,3.47
2023-03-08T13:04:39.737Z,7.40
2023-03-08T13:07:39.451Z,5.57
2023-03-08T13:10:21.134Z,5.50
2023-03-08T13:13:02.872Z,3.70
2023-03-08T13:15:29.426Z,5.03
2023-03-08T13:18:00.386Z,3.67
2023-03-08T13:20:41.359Z,3.93
2023-03-08T13:23:26.026Z,3.47
2023-03-08T13:26:18.035Z,4.40
2023-03-08T13:28:48.052Z,4.07
2023-03-08T13:31:18.684Z,2.70
2023-03-08T13:33:53.920Z,2.43
2023-03-08T13:36:29.015Z,2.80
2023-03-08T13:38:57.572Z,2.30
2023-03-08T13:41:42.722Z,2.17
2023-03-08T13:44:18.343Z,1.90
2023-03-08T13:46:48.430Z,2.30
2023-03-08T13:49:29.900Z,1.93
2023-03-08T13:51:59.608Z,3.67
2023-03-08T13:54:30.390Z,2.13
2023-03-08T13:57:02.815Z,2.70
2023-03-08T13:59:29.958Z,1.57
2023-03-08T14:01:57.462Z,1.83
2023-03-08T14:04:29.487Z,2.27
2023-03-08T14:06:59.117Z,2.00
2023-03-08T14:09:26.978Z,1.67
2023-03-08T14:11:59.616Z,2.80
2023-03-08T14:14:32.604Z,1.90
2023-03-08T14:16:59.713Z,2.53
2023-03-08T14:19:29.937Z,2.10
2023-03-08T14:21:59.911Z,2.27
2023-03-08T14:24:29.688Z,3.13
2023-03-08T14:27:00.553Z,2.07
2023-03-08T14:29:32.565Z,2.30
2023-03-08T14:32:13.132Z,3.00
2023-03-08T14:34:49.388Z,2.27
2023-03-08T14:37:23.914Z,2.00
2023-03-08T14:39:56.884Z,3.00
2023-03-08T14:42:35.553Z,2.80
2023-03-08T14:45:06.748Z,2.60
2023-03-08T14:47:35.443Z,2.80
2023-03-08T14:50:06.862Z,2.20
2023-03-08T14:52:36.889Z,3.97
2023-03-08T14:55:18.745Z,3.80
2023-03-08T14:57:45.225Z,3.97
2023-03-08T15:00:14.567Z,3.03
2023-03-08T15:02:42.153Z,4.57
2023-03-08T15:05:28.432Z,3.50
2023-03-08T15:07:56.515Z,4.47
2023-03-08T15:10:33.723Z,4.20
2023-03-08T15:13:00.691Z,4.80
2023-03-08T15:15:27.152Z,4.00
2023-03-08T15:17:53.660Z,4.50
2023-03-08T15:20:20.784Z,4.87
2023-03-08T15:22:51.495Z,4.43
2023-03-08T15:25:27.802Z,4.47
2023-03-08T15:27:54.284Z,3.37
2023-03-08T15:30:27.645Z,3.97
2023-03-08T15:32:55.071Z,4.37
2023-03-08T15:35:22.826Z,4.17
2023-03-08T15:37:49.965Z,3.97
2023-03-08T15:40:23.476Z,3.60
2023-03-08T15:42:50.049Z,3.93
2023-03-08T15:45:16.471Z,2.67
2023-03-08T15:47:43.259Z,3.70
2023-03-08T15:50:17.965Z,2.60
2023-03-08T15:52:45.181Z,3.47
2023-03-08T15:55:13.625Z,3.40
2023-03-08T15:57:41.020Z,2.23
2023-03-08T16:00:10.462Z,2.87
2023-03-08T16:02:37.906Z,2.90
2023-03-08T16:05:06.563Z,2.40
2023-03-08T16:07:33.252Z,2.40
2023-03-08T16:09:59.844Z,4.60
2023-03-08T16:12:26.644Z,5.73
2023-03-08T16:14:54.937Z,1.87
2023-03-08T16:17:21.517Z,2.73
2023-03-08T16:19:48.046Z,4.63
2023-03-08T16:22:14.582Z,2.20
2023-03-08T16:24:40.994Z,3.10
2023-03-08T16:27:07.476Z,5.10
2023-03-08T16:29:34.222Z,6.53
2023-03-08T16:32:00.996Z,4.80
2023-03-08T16:34:29.317Z,1.63
2023-03-08T16:36:56.724Z,1.43
2023-03-08T16:39:24.528Z,2.33
2023-03-08T16:41:52.330Z,2.97
2023-03-08T16:44:20.988Z,4.43
2023-03-08T16:46:47.973Z,3.43
2023-03-08T16:49:15.999Z,1.70
2023-03-08T16:51:43.062Z,2.90
2023-03-08T16:54:13.317Z,1.43
2023-03-08T16:56:42.521Z,1.13
2023-03-08T16:59:12.410Z,0.77
2023-03-08T17:01:39.738Z,1.90
2023-03-08T17:04:06.263Z,1.67
2023-03-08T17:06:33.036Z,3.30
2023-03-08T17:08:59.635Z,7.13
2023-03-08T17:11:29.914Z,4.60
2023-03-08T17:13:59.684Z,2.50
2023-03-08T17:16:29.748Z,3.57
2023-03-08T17:18:58.295Z,2.33
2023-03-08T17:21:24.861Z,2.63
2023-03-08T17:23:53.434Z,3.17
2023-03-08T17:26:23.038Z,4.40
2023-03-08T17:28:51.028Z,4.93
2023-03-08T17:31:21.101Z,13.20
2023-03-08T17:33:48.532Z,3.37
2023-03-08T17:36:15.746Z,5.27
2023-03-08T17:38:42.590Z,5.73
2023-03-08T17:41:11.785Z,5.83
2023-03-08T17:43:41.043Z,6.17
2023-03-08T17:46:13.747Z,5.67
2023-03-08T17:48:40.448Z,7.23
2023-03-08T17:51:09.683Z,17.40
2023-03-08T17:53:37.804Z,8.57
2023-03-08T17:56:13.410Z,3.90
2023-03-08T17:58:40.268Z,3.67
2023-03-08T18:01:15.230Z,3.13
2023-03-08T18:03:42.285Z,4.43
2023-03-08T18:06:18.339Z,7.10
2023-03-08T18:08:44.931Z,4.73
2023-03-08T18:11:11.316Z,4.73
2023-03-08T18:13:40.317Z,12.40
2023-03-08T18:16:07.222Z,7.67
2023-03-08T18:18:33.692Z,4.13
2023-03-08T18:21:12.081Z,4.90
2023-03-08T18:23:41.706Z,3.13
2023-03-08T18:26:10.120Z,5.43
2023-03-08T18:28:36.554Z,3.90
2023-03-08T18:31:11.801Z,2.77
2023-03-08T18:33:38.337Z,4.27
2023-03-08T18:36:05.077Z,1.77
2023-03-08T18:38:31.633Z,2.40
2023-03-08T18:40:58.102Z,3.67
2023-03-08T18:43:25.354Z,2.17
2023-03-08T18:45:56.488Z,2.47
2023-03-08T18:48:24.249Z,2.10
2023-03-08T18:50:50.787Z,2.53
2023-03-08T18:53:17.256Z,1.80
2023-03-08T18:55:54.289Z,1.67
2023-03-08T18:58:21.230Z,1.63
2023-03-08T19:00:48.086Z,1.70
2023-03-08T19:03:14.515Z,2.07
2023-03-08T19:05:41.121Z,2.00
2023-03-08T19:08:07.557Z,2.27
2023-03-08T19:10:33.997Z,2.33
2023-03-08T19:13:00.505Z,1.90
2023-03-08T19:15:27.237Z,5.33
2023-03-08T19:17:58.617Z,6.00
2023-03-08T19:20:26.563Z,4.23
2023-03-08T19:22:53.414Z,6.80
2023-03-08T19:25:19.807Z,6.50
2023-03-08T19:27:46.302Z,10.83
2023-03-08T19:30:12.955Z,8.13
2023-03-08T19:32:42.157Z,7.80
2023-03-08T19:35:09.806Z,5.03
2023-03-08T19:37:36.286Z,5.73
2023-03-08T19:40:05.311Z,5.57
2023-03-08T19:42:31.843Z,6.20
2023-03-08T19:44:58.437Z,5.13
2023-03-08T19:47:24.854Z,3.57
2023-03-08T19:49:51.649Z,4.00
2023-03-08T19:52:18.186Z,4.67
2023-03-08T19:54:46.184Z,5.10
2023-03-08T19:57:12.944Z,3.70
2023-03-08T19:59:39.505Z,3.73
2023-03-08T20:02:08.633Z,3.40
2023-03-08T20:04:36.448Z,3.97
2023-03-08T20:07:04.722Z,5.03
2023-03-08T20:09:31.435Z,5.80
2023-03-08T20:11:59.146Z,5.43
2023-03-08T20:14:29.212Z,7.00
2023-03-08T20:16:56.339Z,3.37
2023-03-08T20:19:22.873Z,3.77
2023-03-08T20:21:49.531Z,6.50
2023-03-08T20:24:18.421Z,6.57
2023-03-08T20:26:45.374Z,4.67
2023-03-08T20:29:11.962Z,4.23
2023-03-08T20:31:38.415Z,3.13
2023-03-08T20:34:04.890Z,3.33
2023-03-08T20:36:31.477Z,2.53
2023-03-08T20:38:58.426Z,2.03
2023-03-08T20:41:25.708Z,2.63
2023-03-08T20:43:55.350Z,2.67
2023-03-08T20:46:28.065Z,3.47
2023-03-08T20:48:54.581Z,3.43
2023-03-08T20:51:22.007Z,5.07
2023-03-08T20:53:50.680Z,4.30
2023-03-08T20:56:19.831Z,3.90
2023-03-08T20:58:46.721Z,3.83
2023-03-08T21:01:16.413Z,4.13
2023-03-08T21:03:43.750Z,3.13
2023-03-08T21:06:15.018Z,3.63
2023-03-08T21:08:42.047Z,3.30
2023-03-08T21:11:08.955Z,4.97
2023-03-08T21:13:35.396Z,4.60
2023-03-08T21:16:07.518Z,4.30
2023-03-08T21:18:34.017Z,3.73
2023-03-08T21:21:01.454Z,5.43
2023-03-08T21:23:28.022Z,5.27
2023-03-08T21:25:58.010Z,9.70
2023-03-08T21:28:24.559Z,6.80
2023-03-08T21:30:51.419Z,5.20
2023-03-08T21:33:17.836Z,10.23
2023-03-08T21:35:44.806Z,7.80
2023-03-08T21:38:11.253Z,6.90
2023-03-08T21:40:40.390Z,9.53
2023-03-08T21:43:07.374Z,7.83
2023-03-08T21:45:39.040Z,5.43
2023-03-08T21:48:06.058Z,4.87
2023-03-08T21:50:32.944Z,12.50
2023-03-08T21:52:59.531Z,6.83
2023-03-08T21:55:25.984Z,6.80
2023-03-08T21:57:52.463Z,5.27
2023-03-08T22:00:18.910Z,5.17
2023-03-08T22:02:51.583Z,6.03
2023-03-08T22:05:18.829Z,7.13
2023-03-08T22:07:45.295Z,4.20
2023-03-08T22:10:13.585Z,7.03
2023-03-08T22:12:42.050Z,4.97
2023-03-08T22:15:08.926Z,5.13
2023-03-08T22:17:35.464Z,5.77
2023-03-08T22:20:01.873Z,4.10
2023-03-08T22:22:28.307Z,7.90
2023-03-08T22:24:54.712Z,3.70
2023-03-08T22:27:22.993Z,6.27
2023-03-08T22:29:49.945Z,5.20
2023-03-08T22:32:16.429Z,4.03
2023-03-08T22:34:43.044Z,3.63
2023-03-08T22:37:09.467Z,4.70
2023-03-08T22:39:37.709Z,4.20
2023-03-08T22:42:04.469Z,3.97
2023-03-08T22:44:31.232Z,3.07
2023-03-08T22:46:57.688Z,5.17
2023-03-08T22:49:24.106Z,3.87
2023-03-08T22:51:52.257Z,4.10
2023-03-08T22:54:21.563Z,4.70
2023-03-08T22:56:49.857Z,2.93
2023-03-08T22:59:16.720Z,3.40
2023-03-08T23:01:43.246Z,5.13
2023-03-08T23:04:12.136Z,5.70
2023-03-08T23:06:39.026Z,2.80
2023-03-08T23:09:08.071Z,6.33
2023-03-08T23:11:36.068Z,2.83
2023-03-08T23:14:03.355Z,3.27
2023-03-08T23:16:29.884Z,3.43
2023-03-08T23:18:56.412Z,2.10
2023-03-08T23:21:24.869Z,3.37
2023-03-08T23:23:51.338Z,2.13
2023-03-08T23:26:21.173Z,1.80
2023-03-08T23:28:48.052Z,3.20
2023-03-08T23:31:20.751Z,1.27
2023-03-08T23:33:48.986Z,3.20
2023-03-08T23:36:18.553Z,1.90
2023-03-08T23:38:45.071Z,1.70
2023-03-08T23:41:12.692Z,4.23
2023-03-08T23:43:40.358Z,1.23
2023-03-08T23:46:13.756Z,1.33
2023-03-08T23:48:40.493Z,1.93
2023-03-08T23:51:09.811Z,2.57
2023-03-08T23:53:36.693Z,1.20
2023-03-08T23:56:04.026Z,3.03
2023-03-08T23:58:30.772Z,1.70
